sensor_id;sensor_type;location;lat;lon;timestamp;pressure;altitude;pressure_sealevel;temperature;humidity
50364;BME280;36272;59.400;17.982;2023-02-02T00:04:49;99906.56;;;0.77;82.35
50364;BME280;36272;59.400;17.982;2023-02-02T00:09:50;99911.81;;;0.77;82.57
50364;BME280;36272;59.400;17.982;2023-02-02T00:14:52;99922.16;;;0.78;82.39
50364;BME280;36272;59.400;17.982;2023-02-02T00:19:54;99928.78;;;0.74;82.28
50364;BME280;36272;59.400;17.982;2023-02-02T00:24:55;99931.94;;;0.69;82.17
50364;BME280;36272;59.400;17.982;2023-02-02T00:29:57;99947.63;;;0.63;82.37
50364;BME280;36272;59.400;17.982;2023-02-02T00:34:59;99939.44;;;0.57;82.27
50364;BME280;36272;59.400;17.982;2023-02-02T00:40:01;99946.22;;;0.52;82.08
50364;BME280;36272;59.400;17.982;2023-02-02T00:45:03;99954.63;;;0.47;81.91
50364;BME280;36272;59.400;17.982;2023-02-02T00:50:18;99962.41;;;0.40;81.99
50364;BME280;36272;59.400;17.982;2023-02-02T00:55:21;99968.53;;;0.33;81.98
50364;BME280;36272;59.400;17.982;2023-02-02T01:00:24;99968.56;;;0.24;81.88
50364;BME280;36272;59.400;17.982;2023-02-02T01:05:27;99976.00;;;0.21;81.82
50364;BME280;36272;59.400;17.982;2023-02-02T01:10:29;99981.59;;;0.18;81.51
50364;BME280;36272;59.400;17.982;2023-02-02T01:15:31;99988.72;;;0.09;81.36
50364;BME280;36272;59.400;17.982;2023-02-02T01:20:32;99999.25;;;0.01;81.47
50364;BME280;36272;59.400;17.982;2023-02-02T01:25:34;100006.53;;;-0.10;81.10
50364;BME280;36272;59.400;17.982;2023-02-02T01:30:38;100014.28;;;-0.25;81.21
50364;BME280;36272;59.400;17.982;2023-02-02T01:35:47;100017.25;;;-0.36;81.24
50364;BME280;36272;59.400;17.982;2023-02-02T01:40:52;100023.19;;;-0.42;80.93
50364;BME280;36272;59.400;17.982;2023-02-02T01:45:57;100029.47;;;-0.52;80.97
50364;BME280;36272;59.400;17.982;2023-02-02T01:51:04;100045.88;;;-0.58;80.87
50364;BME280;36272;59.400;17.982;2023-02-02T01:56:09;100045.22;;;-0.68;80.81
50364;BME280;36272;59.400;17.982;2023-02-02T02:01:12;100056.22;;;-0.65;80.73
50364;BME280;36272;59.400;17.982;2023-02-02T02:06:17;100061.81;;;-0.84;80.68
50364;BME280;36272;59.400;17.982;2023-02-02T02:11:20;100080.34;;;-0.94;80.73
50364;BME280;36272;59.400;17.982;2023-02-02T02:16:47;100084.44;;;-1.00;80.95
50364;BME280;36272;59.400;17.982;2023-02-02T02:22:19;100087.88;;;-1.08;80.99
50364;BME280;36272;59.400;17.982;2023-02-02T02:33:05;100102.75;;;-1.25;80.95
50364;BME280;36272;59.400;17.982;2023-02-02T02:38:34;100112.91;;;-1.30;81.00
50364;BME280;36272;59.400;17.982;2023-02-02T02:43:42;100126.53;;;-1.26;80.81
50364;BME280;36272;59.400;17.982;2023-02-02T02:48:46;100139.28;;;-1.40;80.65
50364;BME280;36272;59.400;17.982;2023-02-02T02:53:47;100145.53;;;-1.41;80.77
50364;BME280;36272;59.400;17.982;2023-02-02T03:04:31;100161.34;;;-1.51;80.91
50364;BME280;36272;59.400;17.982;2023-02-02T03:09:39;100170.06;;;-1.50;80.71
50364;BME280;36272;59.400;17.982;2023-02-02T03:14:42;100174.84;;;-1.45;80.86
50364;BME280;36272;59.400;17.982;2023-02-02T03:19:44;100192.78;;;-1.32;80.64
50364;BME280;36272;59.400;17.982;2023-02-02T03:24:46;100191.03;;;-1.24;80.80
50364;BME280;36272;59.400;17.982;2023-02-02T03:29:47;100200.59;;;-1.14;80.86
50364;BME280;36272;59.400;17.982;2023-02-02T03:34:49;100219.50;;;-1.02;80.74
50364;BME280;36272;59.400;17.982;2023-02-02T03:39:51;100229.06;;;-0.93;80.83
50364;BME280;36272;59.400;17.982;2023-02-02T03:44:52;100245.00;;;-0.86;81.02
50364;BME280;36272;59.400;17.982;2023-02-02T03:49:54;100247.13;;;-0.82;81.01
50364;BME280;36272;59.400;17.982;2023-02-02T03:54:56;100261.44;;;-0.76;80.86
50364;BME280;36272;59.400;17.982;2023-02-02T03:59:58;100277.88;;;-0.74;80.81
50364;BME280;36272;59.400;17.982;2023-02-02T04:04:59;100280.00;;;-0.69;80.83
50364;BME280;36272;59.400;17.982;2023-02-02T04:10:02;100289.72;;;-0.70;80.92
50364;BME280;36272;59.400;17.982;2023-02-02T04:15:04;100309.41;;;-0.66;80.78
50364;BME280;36272;59.400;17.982;2023-02-02T04:20:06;100311.72;;;-0.63;80.59
50364;BME280;36272;59.400;17.982;2023-02-02T04:25:08;100311.72;;;-0.63;80.66
50364;BME280;36272;59.400;17.982;2023-02-02T04:30:10;100328.47;;;-0.64;80.75
50364;BME280;36272;59.400;17.982;2023-02-02T04:35:12;100330.44;;;-0.66;80.62
50364;BME280;36272;59.400;17.982;2023-02-02T04:40:13;100335.53;;;-0.64;80.54
50364;BME280;36272;59.400;17.982;2023-02-02T04:45:15;100350.47;;;-0.65;80.51
50364;BME280;36272;59.400;17.982;2023-02-02T04:50:17;100355.41;;;-0.62;80.42
50364;BME280;36272;59.400;17.982;2023-02-02T04:55:19;100358.03;;;-0.62;80.33
50364;BME280;36272;59.400;17.982;2023-02-02T05:00:21;100358.69;;;-0.60;80.11
50364;BME280;36272;59.400;17.982;2023-02-02T05:05:22;100382.66;;;-0.63;80.27
50364;BME280;36272;59.400;17.982;2023-02-02T05:10:24;100376.72;;;-0.65;80.33
50364;BME280;36272;59.400;17.982;2023-02-02T05:15:26;100396.28;;;-0.67;80.19
50364;BME280;36272;59.400;17.982;2023-02-02T05:20:27;100409.59;;;-0.69;80.27
50364;BME280;36272;59.400;17.982;2023-02-02T05:25:29;100423.84;;;-0.71;80.28
50364;BME280;36272;59.400;17.982;2023-02-02T05:30:31;100438.47;;;-0.69;80.23
50364;BME280;36272;59.400;17.982;2023-02-02T05:35:32;100447.53;;;-0.63;79.98
50364;BME280;36272;59.400;17.982;2023-02-02T05:40:34;100438.78;;;-0.72;80.04
50364;BME280;36272;59.400;17.982;2023-02-02T05:45:36;100440.38;;;-0.79;80.15
50364;BME280;36272;59.400;17.982;2023-02-02T05:50:37;100454.63;;;-0.82;80.30
50364;BME280;36272;59.400;17.982;2023-02-02T05:55:39;100478.94;;;-0.80;80.20
50364;BME280;36272;59.400;17.982;2023-02-02T06:00:41;100475.19;;;-0.77;80.04
50364;BME280;36272;59.400;17.982;2023-02-02T06:05:42;100486.69;;;-0.78;80.05
50364;BME280;36272;59.400;17.982;2023-02-02T06:10:44;100497.19;;;-0.78;79.89
50364;BME280;36272;59.400;17.982;2023-02-02T06:15:46;100506.06;;;-0.79;79.90
50364;BME280;36272;59.400;17.982;2023-02-02T06:20:55;100505.22;;;-0.80;80.14
50364;BME280;36272;59.400;17.982;2023-02-02T06:25:57;100519.31;;;-0.81;79.76
50364;BME280;36272;59.400;17.982;2023-02-02T06:31:03;100528.72;;;-0.78;79.88
50364;BME280;36272;59.400;17.982;2023-02-02T06:36:06;100543.81;;;-0.80;79.65
50364;BME280;36272;59.400;17.982;2023-02-02T06:41:08;100557.53;;;-0.86;79.74
50364;BME280;36272;59.400;17.982;2023-02-02T06:46:12;100577.69;;;-0.87;79.60
50364;BME280;36272;59.400;17.982;2023-02-02T06:51:14;100593.63;;;-0.88;79.64
50364;BME280;36272;59.400;17.982;2023-02-02T06:56:16;100598.19;;;-0.91;79.69
50364;BME280;36272;59.400;17.982;2023-02-02T07:01:18;100608.41;;;-0.87;79.58
50364;BME280;36272;59.400;17.982;2023-02-02T07:06:25;100610.38;;;-0.90;79.57
50364;BME280;36272;59.400;17.982;2023-02-02T07:11:27;100622.22;;;-0.85;79.62
50364;BME280;36272;59.400;17.982;2023-02-02T07:16:29;100624.56;;;-0.82;79.46
50364;BME280;36272;59.400;17.982;2023-02-02T07:21:31;100638.28;;;-0.88;79.46
50364;BME280;36272;59.400;17.982;2023-02-02T07:26:36;100643.53;;;-0.88;79.35
50364;BME280;36272;59.400;17.982;2023-02-02T07:31:37;100652.09;;;-0.86;79.41
50364;BME280;36272;59.400;17.982;2023-02-02T07:36:39;100651.25;;;-0.87;79.46
50364;BME280;36272;59.400;17.982;2023-02-02T07:41:41;100662.88;;;-0.90;79.67
50364;BME280;36272;59.400;17.982;2023-02-02T07:46:46;100667.69;;;-0.85;79.49
50364;BME280;36272;59.400;17.982;2023-02-02T07:51:48;100685.09;;;-0.84;79.51
50364;BME280;36272;59.400;17.982;2023-02-02T07:56:49;100694.63;;;-0.83;79.45
50364;BME280;36272;59.400;17.982;2023-02-02T08:01:51;100715.34;;;-0.80;79.59
50364;BME280;36272;59.400;17.982;2023-02-02T08:06:53;100712.22;;;-0.83;79.29
50364;BME280;36272;59.400;17.982;2023-02-02T08:11:54;100721.66;;;-0.91;79.02
50364;BME280;36272;59.400;17.982;2023-02-02T08:17:01;100749.63;;;-0.99;78.88
50364;BME280;36272;59.400;17.982;2023-02-02T08:22:03;100745.28;;;-1.18;79.03
50364;BME280;36272;59.400;17.982;2023-02-02T08:27:06;100757.31;;;-1.26;79.04
50364;BME280;36272;59.400;17.982;2023-02-02T08:32:08;100760.38;;;-1.40;78.97
50364;BME280;36272;59.400;17.982;2023-02-02T08:37:10;100774.06;;;-1.46;79.17
50364;BME280;36272;59.400;17.982;2023-02-02T08:42:12;100782.50;;;-1.53;78.98
50364;BME280;36272;59.400;17.982;2023-02-02T08:47:13;100789.72;;;-1.65;78.81
50364;BME280;36272;59.400;17.982;2023-02-02T08:52:15;100796.91;;;-1.76;78.85
50364;BME280;36272;59.400;17.982;2023-02-02T08:57:17;100804.94;;;-1.78;79.07
50364;BME280;36272;59.400;17.982;2023-02-02T09:02:18;100812.50;;;-1.85;78.67
50364;BME280;36272;59.400;17.982;2023-02-02T09:07:20;100825.78;;;-1.86;78.88
50364;BME280;36272;59.400;17.982;2023-02-02T09:12:22;100834.19;;;-1.83;78.74
50364;BME280;36272;59.400;17.982;2023-02-02T09:17:34;100834.59;;;-1.77;78.71
50364;BME280;36272;59.400;17.982;2023-02-02T09:22:46;100840.81;;;-1.78;78.45
50364;BME280;36272;59.400;17.982;2023-02-02T09:27:48;100851.72;;;-1.73;78.50
50364;BME280;36272;59.400;17.982;2023-02-02T09:32:50;100854.06;;;-1.70;78.56
50364;BME280;36272;59.400;17.982;2023-02-02T09:37:51;100867.59;;;-1.65;78.36
50364;BME280;36272;59.400;17.982;2023-02-02T09:59:01;100888.94;;;-0.91;78.30
50364;BME280;36272;59.400;17.982;2023-02-02T10:04:26;100892.59;;;-0.74;77.74
50364;BME280;36272;59.400;17.982;2023-02-02T10:09:42;100909.75;;;-0.70;77.59
50364;BME280;36272;59.400;17.982;2023-02-02T10:20:25;100923.25;;;-0.65;77.39
50364;BME280;36272;59.400;17.982;2023-02-02T10:25:31;100938.75;;;-0.62;77.24
50364;BME280;36272;59.400;17.982;2023-02-02T10:36:18;100934.50;;;-0.72;77.00
50364;BME280;36272;59.400;17.982;2023-02-02T10:42:03;100946.66;;;-0.71;76.33
50364;BME280;36272;59.400;17.982;2023-02-02T10:46:59;100945.84;;;-0.72;76.28
50364;BME280;36272;59.400;17.982;2023-02-02T10:57:18;100960.31;;;-0.58;75.52
50364;BME280;36272;59.400;17.982;2023-02-02T11:02:24;100973.38;;;-0.38;75.22
50364;BME280;36272;59.400;17.982;2023-02-02T11:07:26;100966.53;;;-0.21;74.79
50364;BME280;36272;59.400;17.982;2023-02-02T11:12:32;100970.66;;;-0.09;74.52
50364;BME280;36272;59.400;17.982;2023-02-02T11:17:34;100979.28;;;-0.17;73.79
50364;BME280;36272;59.400;17.982;2023-02-02T11:22:37;100980.75;;;-0.42;74.00
50364;BME280;36272;59.400;17.982;2023-02-02T11:27:40;100988.50;;;-0.50;74.55
50364;BME280;36272;59.400;17.982;2023-02-02T11:32:42;100998.31;;;-0.42;74.28
50364;BME280;36272;59.400;17.982;2023-02-02T11:38:13;101002.72;;;-0.33;73.97
50364;BME280;36272;59.400;17.982;2023-02-02T11:43:30;101008.25;;;-0.36;74.10
50364;BME280;36272;59.400;17.982;2023-02-02T11:48:36;101006.06;;;-0.41;74.05
50364;BME280;36272;59.400;17.982;2023-02-02T11:53:46;101002.03;;;-0.35;73.96
50364;BME280;36272;59.400;17.982;2023-02-02T11:58:54;101026.34;;;-0.23;74.01
50364;BME280;36272;59.400;17.982;2023-02-02T12:09:21;101024.59;;;0.33;72.88
50364;BME280;36272;59.400;17.982;2023-02-02T12:14:42;101048.69;;;0.56;71.68
50364;BME280;36272;59.400;17.982;2023-02-02T12:20:00;101044.31;;;0.47;71.96
50364;BME280;36272;59.400;17.982;2023-02-02T12:25:32;101049.78;;;1.00;72.12
50364;BME280;36272;59.400;17.982;2023-02-02T12:31:03;101061.22;;;2.49;69.76
50364;BME280;36272;59.400;17.982;2023-02-02T13:02:47;101055.88;;;4.23;64.44
50364;BME280;36272;59.400;17.982;2023-02-02T13:07:58;101072.34;;;4.01;64.69
50364;BME280;36272;59.400;17.982;2023-02-02T13:13:25;101077.94;;;4.15;64.77
50364;BME280;36272;59.400;17.982;2023-02-02T13:18:47;101084.66;;;4.34;63.91
50364;BME280;36272;59.400;17.982;2023-02-02T13:23:55;101094.13;;;4.20;63.26
50364;BME280;36272;59.400;17.982;2023-02-02T13:29:10;101094.78;;;4.22;65.36
50364;BME280;36272;59.400;17.982;2023-02-02T13:39:57;101110.22;;;4.19;64.68
50364;BME280;36272;59.400;17.982;2023-02-02T13:45:08;101113.59;;;3.21;65.05
50364;BME280;36272;59.400;17.982;2023-02-02T13:50:19;101131.72;;;2.48;65.48
50364;BME280;36272;59.400;17.982;2023-02-02T14:00:37;101131.94;;;1.31;67.93
50364;BME280;36272;59.400;17.982;2023-02-02T14:11:30;101160.84;;;0.77;68.92
50364;BME280;36272;59.400;17.982;2023-02-02T14:26:44;101177.19;;;0.43;68.85
50364;BME280;36272;59.400;17.982;2023-02-02T14:31:53;101190.81;;;0.28;68.74
50364;BME280;36272;59.400;17.982;2023-02-02T14:53:20;101224.38;;;-0.13;69.17
50364;BME280;36272;59.400;17.982;2023-02-02T15:03:54;101232.69;;;-0.37;69.37
50364;BME280;36272;59.400;17.982;2023-02-02T15:19:46;101260.53;;;-0.85;69.76
50364;BME280;36272;59.400;17.982;2023-02-02T15:24:51;101267.69;;;-0.97;69.89
50364;BME280;36272;59.400;17.982;2023-02-02T15:29:56;101274.69;;;-1.08;70.11
50364;BME280;36272;59.400;17.982;2023-02-02T15:35:04;101285.44;;;-1.21;70.22
50364;BME280;36272;59.400;17.982;2023-02-02T15:40:35;101288.13;;;-1.32;70.35
50364;BME280;36272;59.400;17.982;2023-02-02T15:45:42;101308.22;;;-1.42;70.40
50364;BME280;36272;59.400;17.982;2023-02-02T15:50:46;101297.13;;;-1.56;70.38
50364;BME280;36272;59.400;17.982;2023-02-02T15:55:49;101299.78;;;-1.67;70.58
50364;BME280;36272;59.400;17.982;2023-02-02T16:00:58;101307.47;;;-1.75;70.60
50364;BME280;36272;59.400;17.982;2023-02-02T16:06:03;101323.25;;;-1.87;70.43
50364;BME280;36272;59.400;17.982;2023-02-02T16:11:10;101323.28;;;-1.98;70.98
50364;BME280;36272;59.400;17.982;2023-02-02T16:16:31;101312.84;;;-2.10;71.20
50364;BME280;36272;59.400;17.982;2023-02-02T16:21:37;101328.34;;;-2.18;71.13
50364;BME280;36272;59.400;17.982;2023-02-02T16:26:41;101320.97;;;-2.24;71.33
50364;BME280;36272;59.400;17.982;2023-02-02T16:31:45;101312.53;;;-2.28;71.44
50364;BME280;36272;59.400;17.982;2023-02-02T16:37:03;101314.22;;;-2.27;71.52
50364;BME280;36272;59.400;17.982;2023-02-02T16:42:24;101329.94;;;-2.27;71.62
50364;BME280;36272;59.400;17.982;2023-02-02T16:52:28;101323.84;;;-2.27;71.63
50364;BME280;36272;59.400;17.982;2023-02-02T16:57:31;101318.84;;;-2.30;71.63
50364;BME280;36272;59.400;17.982;2023-02-02T17:02:36;101316.94;;;-2.28;71.79
50364;BME280;36272;59.400;17.982;2023-02-02T17:07:45;101332.19;;;-2.33;71.50
50364;BME280;36272;59.400;17.982;2023-02-02T17:12:47;101341.50;;;-2.41;71.59
50364;BME280;36272;59.400;17.982;2023-02-02T17:17:50;101347.00;;;-2.44;71.76
50364;BME280;36272;59.400;17.982;2023-02-02T17:23:03;101353.88;;;-2.43;71.93
50364;BME280;36272;59.400;17.982;2023-02-02T17:28:09;101345.91;;;-2.41;72.08
50364;BME280;36272;59.400;17.982;2023-02-02T17:33:17;101351.03;;;-2.40;72.10
50364;BME280;36272;59.400;17.982;2023-02-02T17:38:29;101358.78;;;-2.38;72.07
50364;BME280;36272;59.400;17.982;2023-02-02T17:43:35;101356.16;;;-2.38;72.25
50364;BME280;36272;59.400;17.982;2023-02-02T17:48:37;101369.13;;;-2.36;72.19
50364;BME280;36272;59.400;17.982;2023-02-02T17:53:39;101363.16;;;-2.39;72.03
50364;BME280;36272;59.400;17.982;2023-02-02T17:58:40;101376.16;;;-2.37;72.13
50364;BME280;36272;59.400;17.982;2023-02-02T18:03:43;101378.19;;;-2.41;72.16
50364;BME280;36272;59.400;17.982;2023-02-02T18:08:46;101377.47;;;-2.43;72.16
50364;BME280;36272;59.400;17.982;2023-02-02T18:13:48;101388.22;;;-2.46;72.42
50364;BME280;36272;59.400;17.982;2023-02-02T18:18:49;101388.44;;;-2.49;72.28
50364;BME280;36272;59.400;17.982;2023-02-02T18:23:51;101376.41;;;-2.51;72.30
50364;BME280;36272;59.400;17.982;2023-02-02T18:28:53;101368.06;;;-2.57;72.18
50364;BME280;36272;59.400;17.982;2023-02-02T18:33:57;101373.69;;;-2.61;72.33
50364;BME280;36272;59.400;17.982;2023-02-02T18:39:26;101361.78;;;-2.65;72.36
50364;BME280;36272;59.400;17.982;2023-02-02T18:44:34;101370.09;;;-2.72;72.29
50364;BME280;36272;59.400;17.982;2023-02-02T18:49:46;101359.03;;;-2.75;72.46
50364;BME280;36272;59.400;17.982;2023-02-02T18:54:48;101365.81;;;-2.73;72.46
50364;BME280;36272;59.400;17.982;2023-02-02T18:59:57;101365.56;;;-2.81;72.61
50364;BME280;36272;59.400;17.982;2023-02-02T19:05:26;101369.63;;;-2.77;72.68
50364;BME280;36272;59.400;17.982;2023-02-02T19:11:11;101369.03;;;-2.80;72.80
50364;BME280;36272;59.400;17.982;2023-02-02T19:16:48;101386.91;;;-2.74;72.67
50364;BME280;36272;59.400;17.982;2023-02-02T19:22:22;101387.00;;;-2.76;72.63
50364;BME280;36272;59.400;17.982;2023-02-02T19:27:25;101388.66;;;-2.75;72.59
50364;BME280;36272;59.400;17.982;2023-02-02T19:32:31;101386.28;;;-2.78;72.58
50364;BME280;36272;59.400;17.982;2023-02-02T19:37:34;101394.03;;;-2.76;72.47
50364;BME280;36272;59.400;17.982;2023-02-02T19:42:48;101369.50;;;-2.87;72.68
50364;BME280;36272;59.400;17.982;2023-02-02T19:47:52;101372.97;;;-2.97;72.46
50364;BME280;36272;59.400;17.982;2023-02-02T19:52:56;101366.97;;;-3.11;72.57
50364;BME280;36272;59.400;17.982;2023-02-02T19:58:12;101364.47;;;-3.24;72.63
50364;BME280;36272;59.400;17.982;2023-02-02T20:03:34;101375.50;;;-3.32;72.77
50364;BME280;36272;59.400;17.982;2023-02-02T20:08:41;101387.59;;;-3.42;72.56
50364;BME280;36272;59.400;17.982;2023-02-02T20:13:46;101393.06;;;-3.45;72.75
50364;BME280;36272;59.400;17.982;2023-02-02T20:18:54;101399.19;;;-3.58;72.82
50364;BME280;36272;59.400;17.982;2023-02-02T20:23:57;101412.34;;;-3.70;72.77
50364;BME280;36272;59.400;17.982;2023-02-02T20:29:00;101392.22;;;-3.70;73.08
50364;BME280;36272;59.400;17.982;2023-02-02T20:34:27;101392.72;;;-3.65;73.16
50364;BME280;36272;59.400;17.982;2023-02-02T20:39:38;101386.06;;;-3.69;73.00
50364;BME280;36272;59.400;17.982;2023-02-02T20:44:41;101387.22;;;-3.73;73.05
50364;BME280;36272;59.400;17.982;2023-02-02T20:49:43;101386.84;;;-3.80;72.88
50364;BME280;36272;59.400;17.982;2023-02-02T20:54:47;101376.22;;;-3.90;72.99
50364;BME280;36272;59.400;17.982;2023-02-02T20:59:52;101365.38;;;-3.96;73.08
50364;BME280;36272;59.400;17.982;2023-02-02T21:04:57;101369.38;;;-4.04;73.10
50364;BME280;36272;59.400;17.982;2023-02-02T21:10:02;101376.22;;;-4.14;73.05
50364;BME280;36272;59.400;17.982;2023-02-02T21:15:04;101356.81;;;-4.23;73.14
50364;BME280;36272;59.400;17.982;2023-02-02T21:20:10;101363.19;;;-4.27;73.23
50364;BME280;36272;59.400;17.982;2023-02-02T21:25:13;101360.50;;;-4.38;73.05
50364;BME280;36272;59.400;17.982;2023-02-02T21:30:14;101357.94;;;-4.51;73.21
50364;BME280;36272;59.400;17.982;2023-02-02T21:35:16;101352.41;;;-4.59;73.27
50364;BME280;36272;59.400;17.982;2023-02-02T21:40:22;101353.03;;;-4.69;73.17
50364;BME280;36272;59.400;17.982;2023-02-02T21:45:33;101363.50;;;-4.82;73.27
50364;BME280;36272;59.400;17.982;2023-02-02T21:50:39;101349.72;;;-4.84;73.28
50364;BME280;36272;59.400;17.982;2023-02-02T21:55:40;101353.47;;;-4.88;73.36
50364;BME280;36272;59.400;17.982;2023-02-02T22:00:43;101357.84;;;-5.01;73.13
50364;BME280;36272;59.400;17.982;2023-02-02T22:05:45;101367.75;;;-5.07;73.30
50364;BME280;36272;59.400;17.982;2023-02-02T22:10:47;101360.38;;;-5.13;73.33
50364;BME280;36272;59.400;17.982;2023-02-02T22:15:50;101358.91;;;-5.17;73.29
50364;BME280;36272;59.400;17.982;2023-02-02T22:20:55;101351.38;;;-5.22;73.38
50364;BME280;36272;59.400;17.982;2023-02-02T22:25:57;101346.28;;;-5.23;73.76
50364;BME280;36272;59.400;17.982;2023-02-02T22:30:59;101335.09;;;-5.25;73.36
50364;BME280;36272;59.400;17.982;2023-02-02T22:36:01;101337.19;;;-5.30;73.26
50364;BME280;36272;59.400;17.982;2023-02-02T22:41:03;101329.03;;;-5.39;73.32
50364;BME280;36272;59.400;17.982;2023-02-02T22:46:06;101335.50;;;-5.44;73.55
50364;BME280;36272;59.400;17.982;2023-02-02T22:51:08;101342.69;;;-5.48;73.59
50364;BME280;36272;59.400;17.982;2023-02-02T22:56:09;101347.16;;;-5.50;73.46
50364;BME280;36272;59.400;17.982;2023-02-02T23:01:11;101353.63;;;-5.56;73.45
50364;BME280;36272;59.400;17.982;2023-02-02T23:06:14;101361.75;;;-5.60;73.56
50364;BME280;36272;59.400;17.982;2023-02-02T23:11:15;101357.03;;;-5.68;73.35
50364;BME280;36272;59.400;17.982;2023-02-02T23:16:17;101358.09;;;-5.71;73.59
50364;BME280;36272;59.400;17.982;2023-02-02T23:21:19;101349.72;;;-5.76;73.52
50364;BME280;36272;59.400;17.982;2023-02-02T23:26:22;101352.53;;;-5.79;73.66
50364;BME280;36272;59.400;17.982;2023-02-02T23:31:23;101345.75;;;-5.82;73.60
50364;BME280;36272;59.400;17.982;2023-02-02T23:36:25;101343.44;;;-5.86;73.58
50364;BME280;36272;59.400;17.982;2023-02-02T23:41:26;101349.56;;;-5.87;73.58
50364;BME280;36272;59.400;17.982;2023-02-02T23:46:28;101344.56;;;-5.90;73.59
50364;BME280;36272;59.400;17.982;2023-02-02T23:51:30;101346.53;;;-5.94;73.60
50364;BME280;36272;59.400;17.982;2023-02-02T23:56:32;101346.84;;;-5.99;73.49
